M I D A S
Marine Information and Data Acquisition System
Tripno 1856 of the Zeeleeuw from 2010-04-07 09:01:31 to 2010-04-07 14:18:54
Back to CruiseResearch ActivitiesStationsMapUnderway DataData graphs

EquipmentUnitsComment
TimeDGPSUTC
LatitudeDGPSDM.mWGS84
LongitudeDGPSDM.mWGS84
HeadingGyrodeg 
SOGDGPSknotsSpeed over ground
COGDGPSdegCourse over ground
DepthEcho soundermeters200 kHz
Missing or incorrect values are displayed as -999
Navigation data collected by the RV Zeeleeuw from 2010-04-07 06:36:08 to 2010-04-07 14:20:56
Time Latitude Longitude Heading SOG COG Depth
2010-04-07 06:37:13 51°13.666 2°55.961 126.4 -999 208 -999
2010-04-07 06:38:13 51°13.666 2°55.961 126.4 0.1 200 -999
2010-04-07 06:39:14 51°13.667 2°55.961 126.4 0.1 212 -999
2010-04-07 06:40:14 51°13.664 2°55.96 126.4 -999 -999 -999
2010-04-07 06:41:13 51°13.662 2°55.96 126.3 0.1 227 -999
2010-04-07 06:42:14 51°13.662 2°55.96 126.3 -999 64 -999
2010-04-07 06:43:13 51°13.662 2°55.96 126.3 -999 188 -999
2010-04-07 06:44:14 51°13.662 2°55.961 126.3 -999 317 -999
2010-04-07 06:45:13 51°13.66 2°55.959 126.3 -999 304 -999
2010-04-07 06:46:14 51°13.66 2°55.96 126.3 -999 24 -999
2010-04-07 06:47:14 51°13.658 2°55.961 126.4 0.2 167 -999
2010-04-07 06:48:13 51°13.659 2°55.961 126.4 0.1 178 -999
2010-04-07 06:49:13 51°13.658 2°55.961 126.5 0.1 204 -999
2010-04-07 06:50:14 51°13.662 2°55.962 126.5 0.1 212 -999
2010-04-07 06:51:14 51°13.664 2°55.961 126.5 -999 341 -999
2010-04-07 06:52:13 51°13.662 2°55.96 126.5 -999 307 -999
2010-04-07 06:53:13 51°13.662 2°55.96 126.4 -999 336 -999
2010-04-07 06:54:13 51°13.661 2°55.959 126.4 -999 88 -999
2010-04-07 06:55:13 51°13.661 2°55.959 126.4 -999 254 -999
2010-04-07 06:56:13 51°13.661 2°55.959 126.4 -999 303 -999
2010-04-07 06:57:13 51°13.661 2°55.959 126.9 -999 315 -999
2010-04-07 06:58:13 51°13.661 2°55.96 126.3 -999 299 -999
2010-04-07 06:59:13 51°13.661 2°55.96 126.4 -999 44 -999
2010-04-07 07:00:13 51°13.661 2°55.96 126.8 -999 214 -999
2010-04-07 07:01:13 51°13.662 2°55.96 126.3 0.1 238 -999
2010-04-07 07:02:13 51°13.661 2°55.96 126.7 -999 66 -999
2010-04-07 07:03:13 51°13.662 2°55.959 127.1 -999 195 -999
2010-04-07 07:52:19 51°13.662 2°55.961 123 0.1 217 -999
2010-04-07 07:53:19 51°13.662 2°55.961 122.9 -999 34 -999
2010-04-07 07:54:19 51°13.662 2°55.961 122.8 -999 263 -999
2010-04-07 07:55:19 51°13.662 2°55.961 122.8 -999 237 -999
2010-04-07 07:56:19 51°13.661 2°55.961 122.8 -999 269 -999
2010-04-07 07:57:19 51°13.662 2°55.961 122.7 -999 44 -999
2010-04-07 07:58:19 51°13.662 2°55.961 122.7 -999 30 -999
2010-04-07 07:59:19 51°13.662 2°55.961 122.7 -999 26 -999
2010-04-07 08:00:19 51°13.662 2°55.961 122.7 -999 262 -999
2010-04-07 08:01:19 51°13.662 2°55.961 122.7 -999 23 -999
2010-04-07 08:02:19 51°13.662 2°55.961 122.6 0.1 216 -999
2010-04-07 08:03:19 51°13.662 2°55.961 122.5 -999 27 -999
2010-04-07 08:04:19 51°13.662 2°55.961 122.4 -999 238 -999
2010-04-07 08:05:19 51°13.662 2°55.961 122.3 -999 204 -999
2010-04-07 08:06:18 51°13.662 2°55.96 122.1 0.1 224 -999
2010-04-07 08:07:19 51°13.66 2°55.962 122 -999 219 -999
2010-04-07 08:08:19 51°13.66 2°55.962 122 -999 45 -999
2010-04-07 08:09:19 51°13.661 2°55.961 121.9 -999 213 -999
2010-04-07 08:10:20 51°13.661 2°55.961 121.7 -999 36 -999
2010-04-07 08:11:19 51°13.662 2°55.96 121.6 0.1 28 -999
2010-04-07 08:12:19 51°13.662 2°55.96 121.6 -999 236 -999
2010-04-07 08:13:19 51°13.662 2°55.96 121.9 0.1 309 -999
2010-04-07 08:14:19 51°13.662 2°55.96 125.6 -999 67 -999
2010-04-07 08:15:19 51°13.662 2°55.961 126.1 -999 25 -999
2010-04-07 08:16:19 51°13.662 2°55.962 126.1 -999 333 -999
2010-04-07 08:17:19 51°13.661 2°55.962 126.1 -999 216 -999
2010-04-07 08:18:19 51°13.661 2°55.962 126.1 0.1 30 -999
2010-04-07 08:19:19 51°13.662 2°55.956 126.1 -999 27 -999
2010-04-07 08:20:19 51°13.661 2°55.959 126.1 -999 220 -999
2010-04-07 08:21:19 51°13.661 2°55.959 126.1 -999 240 -999
2010-04-07 08:22:19 51°13.662 2°55.959 126.1 -999 239 -999
2010-04-07 08:23:19 51°13.662 2°55.959 126 -999 231 -999
2010-04-07 08:24:19 51°13.662 2°55.959 126 -999 179 -999
2010-04-07 08:25:19 51°13.66 2°55.961 126 0.1 134 -999
2010-04-07 08:26:19 51°13.66 2°55.961 126.1 0.1 152 -999
2010-04-07 08:27:19 51°13.662 2°55.96 126.1 -999 129 -999
2010-04-07 08:28:19 51°13.663 2°55.958 126 -999 5 -999
2010-04-07 08:29:19 51°13.664 2°55.958 126 0.1 315 -999
2010-04-07 08:30:19 51°13.663 2°55.958 126 0.3 320 -999
2010-04-07 08:31:20 51°13.665 2°55.956 126.2 0.1 153 -999
2010-04-07 08:32:19 51°13.668 2°55.959 126.3 0.3 145 -999
2010-04-07 08:33:19 51°13.671 2°55.959 126.4 0.1 29 -999
2010-04-07 08:34:19 51°13.669 2°55.959 126.4 0.1 282 -999
2010-04-07 08:35:19 51°13.666 2°55.961 126.4 -999 77 -999
2010-04-07 08:36:19 51°13.664 2°55.961 126.4 0.1 243 -999
2010-04-07 08:37:19 51°13.665 2°55.961 126.4 0.1 153 -999
2010-04-07 08:38:19 51°13.666 2°55.961 126.4 0.1 266 -999
2010-04-07 08:39:19 51°13.666 2°55.96 126.4 0.1 242 -999
2010-04-07 08:40:19 51°13.665 2°55.959 126.4 -999 301 -999
2010-04-07 08:41:19 51°13.664 2°55.959 126.4 -999 43 -999
2010-04-07 08:42:19 51°13.664 2°55.959 126.4 -999 267 -999
2010-04-07 08:43:19 51°13.664 2°55.958 126.4 0.1 123 -999
2010-04-07 08:44:19 51°13.664 2°55.958 126.4 -999 17 -999
2010-04-07 08:45:19 51°13.662 2°55.958 126.4 0.1 215 -999
2010-04-07 08:46:19 51°13.662 2°55.959 126.4 -999 203 -999
2010-04-07 08:47:19 51°13.662 2°55.958 126.4 0.1 281 -999
2010-04-07 08:48:19 51°13.662 2°55.959 126.5 0.2 297 -999
2010-04-07 08:49:19 51°13.662 2°55.96 126.7 -999 14 -999
2010-04-07 08:50:19 51°13.662 2°55.96 126.7 0.1 205 -999
2010-04-07 08:51:19 51°13.662 2°55.961 126.9 0.2 117 -999
2010-04-07 08:52:19 51°13.661 2°55.961 127 0.1 217 -999
2010-04-07 08:53:19 51°13.663 2°55.961 127.1 -999 180 -999
2010-04-07 08:54:19 51°13.663 2°55.962 127.1 0.1 318 -999
2010-04-07 08:55:19 51°13.661 2°55.962 128.8 0.1 220 -999
2010-04-07 08:56:19 51°13.661 2°55.962 121.2 0.1 44 -999
2010-04-07 08:57:19 51°13.661 2°55.955 112.5 1.2 290 -999
2010-04-07 08:58:19 51°13.685 2°55.878 109.7 4.2 292 -999
2010-04-07 08:59:19 51°13.701 2°55.772 90.2 3.8 277 -999
2010-04-07 09:00:18 51°13.704 2°55.732 51.2 0.7 16 -999
2010-04-07 09:01:17 51°13.746 2°55.718 336.4 5.5 332 9.3
2010-04-07 09:02:16 51°13.866 2°55.615 335.5 9.6 334 5
2010-04-07 09:03:15 51°14.015 2°55.505 337.4 10.1 334 4.6
2010-04-07 09:04:18 51°14.173 2°55.384 335.4 10.1 333 4.9
2010-04-07 09:05:18 51°14.318 2°55.245 326.5 10.7 323 4.9
2010-04-07 09:06:17 51°14.473 2°55.074 327.5 12.5 326 12.1
2010-04-07 09:07:15 51°14.642 2°54.87 324.4 13.7 322 12.7
2010-04-07 09:08:15 51°14.824 2°54.647 325.2 13.8 325 13.2
2010-04-07 09:09:15 51°15.009 2°54.43 325.9 13.7 325 11
2010-04-07 09:10:15 51°15.194 2°54.216 325.5 13.8 323 11.4
2010-04-07 09:11:16 51°15.377 2°53.984 323.4 13.8 321 11.7
2010-04-07 09:12:15 51°15.556 2°53.763 323.1 13.9 321 12
2010-04-07 09:13:15 51°15.744 2°53.553 332 13.8 330 12.5
2010-04-07 09:14:15 51°15.956 2°53.411 340.9 13.9 339 12.7
2010-04-07 09:15:15 51°16.171 2°53.279 340.2 13.8 338 12.8
2010-04-07 09:16:15 51°16.385 2°53.146 339.9 13.8 338 13
2010-04-07 09:17:15 51°16.6 2°53.01 339.9 13.9 338 12.6
2010-04-07 09:18:15 51°16.814 2°52.878 341.5 13.7 341 10.2
2010-04-07 09:19:15 51°17.03 2°52.754 341.5 14 340 10.8
2010-04-07 09:20:16 51°17.259 2°52.671 354 13.9 353 10.6
2010-04-07 09:21:15 51°17.485 2°52.626 355.5 14 353 11
2010-04-07 09:22:16 51°17.72 2°52.584 358.8 14 357 11.3
2010-04-07 09:23:15 51°17.948 2°52.588 3.4 14 1 11.5
2010-04-07 09:24:15 51°18.182 2°52.591 3 14 1 11.8
2010-04-07 09:25:15 51°18.415 2°52.595 2.8 14 -999 12.1
2010-04-07 09:26:15 51°18.648 2°52.593 2.8 14 359 12.5
2010-04-07 09:27:15 51°18.881 2°52.591 2.1 14 359 13.2
2010-04-07 09:28:15 51°19.114 2°52.586 2.3 13.9 359 14.2
2010-04-07 09:29:15 51°19.347 2°52.582 2.1 14 359 15.3
2010-04-07 09:30:15 51°19.58 2°52.58 2.4 14 -999 16.2
2010-04-07 09:31:15 51°19.813 2°52.578 2.4 13.9 -999 16.8
2010-04-07 09:32:15 51°20.044 2°52.605 10.2 13.9 7 17
2010-04-07 09:33:15 51°20.275 2°52.65 9.8 14 7 17.1
2010-04-07 09:34:15 51°20.504 2°52.716 18 14.1 15 17.1
2010-04-07 09:35:15 51°20.727 2°52.829 20.5 14 17 16.9
2010-04-07 09:36:15 51°20.949 2°52.94 20.2 14 18 16.1
2010-04-07 09:37:16 51°21.176 2°53.051 19.8 14 17 15.7
2010-04-07 09:38:15 51°21.396 2°53.157 19.5 14.1 17 16.4
2010-04-07 09:39:15 51°21.62 2°53.265 19.3 14.1 17 17.8
2010-04-07 09:40:15 51°21.846 2°53.367 15.7 14 12 19.8
2010-04-07 09:41:15 51°22.076 2°53.445 13.6 14.2 11 21.3
2010-04-07 09:42:15 51°22.307 2°53.523 14.1 14.1 12 22.9
2010-04-07 09:43:15 51°22.535 2°53.598 14.2 14.1 12 23.9
2010-04-07 09:44:15 51°22.763 2°53.677 14.3 14 12 23.7
2010-04-07 09:45:15 51°22.991 2°53.758 14.2 14 13 17.6
2010-04-07 09:46:15 51°23.218 2°53.837 14.3 13.9 11 22.1
2010-04-07 09:47:15 51°23.446 2°53.913 14.6 14 13 20.7
2010-04-07 09:48:15 51°23.674 2°53.98 11.3 13.9 6 20.7
2010-04-07 09:49:15 51°23.904 2°54.027 9.8 14 7 22.3
2010-04-07 09:50:15 51°24.135 2°54.07 10.2 14 7 22.5
2010-04-07 09:51:15 51°24.367 2°54.117 10.2 14.1 9 21.3
2010-04-07 09:52:15 51°24.599 2°54.162 9.8 14 8 18.7
2010-04-07 09:53:15 51°24.832 2°54.206 9.9 14.1 7 19
2010-04-07 09:54:15 51°25.065 2°54.253 10.9 14.1 7 21
2010-04-07 09:55:15 51°25.297 2°54.3 10.5 14 7 21.6
2010-04-07 09:56:15 51°25.529 2°54.345 9.9 14 6 20.9
2010-04-07 09:57:15 51°25.762 2°54.393 10 14.1 7 23.6
2010-04-07 09:58:15 51°25.994 2°54.443 11 14.1 9 24.1
2010-04-07 09:59:15 51°26.225 2°54.49 10.1 13.9 7 24
2010-04-07 10:00:16 51°26.458 2°54.542 10.4 13.9 8 23.1
2010-04-07 10:01:15 51°26.683 2°54.596 10.4 14 9 25.1
2010-04-07 10:02:15 51°26.913 2°54.651 10 13.9 7 28
2010-04-07 10:03:15 51°27.143 2°54.692 7.7 13.9 6 30.1
2010-04-07 10:04:15 51°27.373 2°54.734 8.1 13.9 7 30
2010-04-07 10:05:15 51°27.604 2°54.768 6.8 13.9 5 29.2
2010-04-07 10:06:15 51°27.835 2°54.801 7.3 14 3 28.3
2010-04-07 10:07:15 51°28.067 2°54.831 6.8 14 4 24.1
2010-04-07 10:08:15 51°28.299 2°54.86 7.1 13.9 4 20.5
2010-04-07 10:09:15 51°28.53 2°54.887 7.7 14 5 20.1
2010-04-07 10:10:15 51°28.762 2°54.917 7.5 14 5 23.4
2010-04-07 10:11:15 51°28.993 2°54.948 7.3 14 5 26.2
2010-04-07 10:12:15 51°29.224 2°54.98 7.7 14 5 27.2
2010-04-07 10:13:15 51°29.456 2°55.012 7.3 14 4 27.4
2010-04-07 10:14:15 51°29.688 2°55.043 7.2 14 5 28.7
2010-04-07 10:15:15 51°29.918 2°55.104 12.9 14 12 29.2
2010-04-07 10:16:10 51°30.126 2°55.169 12.6 13.9 10 33.2
2010-04-07 10:17:15 51°30.372 2°55.244 12.4 13.9 11 36.4
2010-04-07 10:18:40 51°30.694 2°55.336 12.5 13.9 10 38.6
2010-04-07 10:19:41 51°30.925 2°55.399 12.4 13.8 10 26.7
2010-04-07 10:20:40 51°31.149 2°55.456 12.4 13.9 10 17.9
2010-04-07 10:21:41 51°31.383 2°55.515 12.4 13.9 9 16
2010-04-07 10:22:41 51°31.612 2°55.573 12.6 14 9 19.8
2010-04-07 10:23:41 51°31.843 2°55.63 11.8 13.9 8 19.1
2010-04-07 10:24:40 51°32.056 2°55.673 8.1 12 4 22.1
2010-04-07 10:25:41 51°32.255 2°55.685 4.2 11.6 1 23
2010-04-07 10:26:41 51°32.44 2°55.681 357.9 9.5 354 23.4
2010-04-07 10:27:41 51°32.551 2°55.633 338.2 5.3 336 22.6
2010-04-07 10:28:41 51°32.6 2°55.589 334.4 2 334 21
2010-04-07 10:29:41 51°32.623 2°55.574 341 1.5 344 21.8
2010-04-07 10:30:41 51°32.642 2°55.561 337.6 1.2 334 23.1
2010-04-07 10:31:41 51°32.659 2°55.546 331.8 1.1 329 24.1
2010-04-07 10:32:41 51°32.673 2°55.53 328.4 0.9 325 25
2010-04-07 10:33:41 51°32.684 2°55.515 326.1 0.8 318 25.1
2010-04-07 10:34:41 51°32.695 2°55.501 324.4 0.7 319 25.5
2010-04-07 10:35:41 51°32.704 2°55.488 323.2 0.7 319 25.4
2010-04-07 10:36:41 51°32.712 2°55.476 323.2 0.7 321 25.3
2010-04-07 10:37:41 51°32.719 2°55.465 322.7 0.6 321 25.3
2010-04-07 10:38:41 51°32.726 2°55.456 322.3 0.6 326 25.4
2010-04-07 10:39:41 51°32.733 2°55.448 322.8 0.5 319 25.3
2010-04-07 10:40:41 51°32.739 2°55.44 323.8 0.5 318 25.3
2010-04-07 10:41:41 51°32.746 2°55.434 326 0.5 325 25.3
2010-04-07 10:42:41 51°32.752 2°55.428 329.5 0.4 334 25.3
2010-04-07 10:43:41 51°32.759 2°55.424 333.6 0.4 339 25.7
2010-04-07 10:44:41 51°32.764 2°55.42 338.3 0.4 327 26.1
2010-04-07 10:45:41 51°32.77 2°55.416 343.4 0.4 331 26.2
2010-04-07 10:46:41 51°32.775 2°55.413 348 0.3 341 26.3
2010-04-07 10:47:41 51°32.78 2°55.41 351.2 0.3 344 26
2010-04-07 10:48:41 51°32.787 2°55.405 354.3 0.3 334 26.3
2010-04-07 10:49:40 51°32.788 2°55.402 357.4 0.2 227 26.4
2010-04-07 10:50:41 51°32.779 2°55.399 5.3 0.8 191 25.7
2010-04-07 10:51:40 51°32.765 2°55.391 12.8 0.8 204 23.9
2010-04-07 10:52:41 51°32.753 2°55.381 17.3 0.8 211 22.7
2010-04-07 10:53:41 51°32.743 2°55.37 19.7 0.7 214 20.7
2010-04-07 10:54:40 51°32.735 2°55.36 22 0.6 213 23.4
2010-04-07 10:55:41 51°32.727 2°55.349 25.1 0.6 225 24.5
2010-04-07 10:56:40 51°32.722 2°55.339 28.4 0.5 240 24.5
2010-04-07 10:57:41 51°32.717 2°55.329 31.3 0.5 244 24.2
2010-04-07 10:58:41 51°32.713 2°55.319 33.2 0.5 244 23.9
2010-04-07 10:59:41 51°32.71 2°55.309 34.1 0.4 253 23.6
2010-04-07 11:00:41 51°32.707 2°55.299 34 0.4 252 22.4
2010-04-07 11:01:41 51°32.705 2°55.289 32.8 0.4 247 22.7
2010-04-07 11:02:41 51°32.703 2°55.28 31.9 0.4 250 23.4
2010-04-07 11:03:41 51°32.7 2°55.271 30.1 0.3 249 24.4
2010-04-07 11:04:41 51°32.698 2°55.262 28 0.3 242 24.6
2010-04-07 11:05:41 51°32.695 2°55.254 26.2 0.3 248 24.8
2010-04-07 11:06:41 51°32.693 2°55.246 24.1 0.3 256 25
2010-04-07 11:07:41 51°32.69 2°55.239 22 0.3 228 25
2010-04-07 11:08:41 51°32.688 2°55.23 20.5 0.3 239 24.7
2010-04-07 11:09:40 51°32.685 2°55.223 19 0.3 241 24.7
2010-04-07 11:10:41 51°32.683 2°55.216 18.2 0.3 222 24.8
2010-04-07 11:11:41 51°32.68 2°55.209 17.2 0.3 241 24.6
2010-04-07 11:12:41 51°32.678 2°55.201 16.3 0.3 243 24.7
2010-04-07 11:13:41 51°32.678 2°55.195 16.9 0.3 317 24.3
2010-04-07 11:14:40 51°32.687 2°55.191 8.1 1.1 349 24.7
2010-04-07 11:15:41 51°32.716 2°55.177 347.1 2.3 336 25
2010-04-07 11:16:39 51°32.751 2°55.138 324.6 2.9 316 25.2
2010-04-07 11:17:41 51°32.771 2°55.071 282.3 2.7 277 24.7
2010-04-07 11:18:39 51°32.762 2°55.006 236.5 2.6 238 24.7
2010-04-07 11:19:41 51°32.729 2°54.965 191.4 2.3 199 25
2010-04-07 11:20:39 51°32.695 2°54.972 143.1 2.1 151 24.3
2010-04-07 11:21:39 51°32.676 2°55.014 99.8 1.9 102 25.1
2010-04-07 11:22:40 51°32.678 2°55.072 79.1 2.3 80 24.4
2010-04-07 11:23:40 51°32.687 2°55.121 67.1 1.7 68 22
2010-04-07 11:24:40 51°32.7 2°55.154 56.5 1.3 52 24.1
2010-04-07 11:25:41 51°32.712 2°55.176 52 1 42 24.9
2010-04-07 11:26:41 51°32.724 2°55.19 47.4 0.8 31 25
2010-04-07 11:27:41 51°32.734 2°55.198 41.9 0.7 20 25.1
2010-04-07 11:28:41 51°32.743 2°55.202 36 0.5 11 25
2010-04-07 11:29:41 51°32.752 2°55.201 30.3 0.5 358 24.4
2010-04-07 11:30:41 51°32.76 2°55.199 24.6 0.5 345 23.9
2010-04-07 11:31:41 51°32.766 2°55.193 17.9 0.4 328 23.6
2010-04-07 11:32:41 51°32.771 2°55.185 10.6 0.4 313 23.9
2010-04-07 11:33:41 51°32.776 2°55.176 3.4 0.4 315 24.1
2010-04-07 11:34:41 51°32.779 2°55.166 355.8 0.4 305 24.5
2010-04-07 11:35:41 51°32.781 2°55.155 349.1 0.4 291 24.5
2010-04-07 11:36:41 51°32.782 2°55.144 343.6 0.5 278 25
2010-04-07 11:37:41 51°32.783 2°55.133 339 0.5 266 25.4
2010-04-07 11:38:40 51°32.783 2°55.122 334.7 0.4 270 25.5
2010-04-07 11:39:41 51°32.783 2°55.112 331.7 0.4 264 25.5
2010-04-07 11:40:41 51°32.782 2°55.103 330.2 0.3 282 25.4
2010-04-07 11:41:41 51°32.781 2°55.094 331.1 0.3 254 25.6
2010-04-07 11:42:41 51°32.779 2°55.085 333.7 0.4 254 25.5
2010-04-07 11:43:41 51°32.777 2°55.077 337.5 0.4 247 25
2010-04-07 11:44:41 51°32.774 2°55.069 341.9 0.5 242 24.9
2010-04-07 11:45:40 51°32.772 2°55.061 346.5 0.3 250 24.5
2010-04-07 11:46:41 51°32.769 2°55.052 350.7 0.4 238 23.7
2010-04-07 11:47:40 51°32.766 2°55.043 354.2 0.4 248 22.1
2010-04-07 11:48:41 51°32.763 2°55.034 356.1 0.6 239 22.8
2010-04-07 11:49:41 51°32.759 2°55.025 357.9 0.4 245 23.6
2010-04-07 11:50:40 51°32.756 2°55.016 359.4 0.3 241 24.2
2010-04-07 11:51:41 51°32.753 2°55.008 1.2 0.4 235 24.6
2010-04-07 11:52:40 51°32.751 2°55.001 2.9 0.4 260 24.9
2010-04-07 11:53:41 51°32.761 2°54.989 357.6 1.5 339 24.6
2010-04-07 11:54:40 51°32.799 2°54.961 340.5 3.7 331 25.2
2010-04-07 11:55:40 51°32.859 2°54.888 324.9 4.9 318 25.6
2010-04-07 11:56:41 51°32.9 2°54.803 306.8 3.4 300 25.8
2010-04-07 11:57:41 51°32.918 2°54.729 292.9 2.7 285 25.1
2010-04-07 11:58:41 51°32.926 2°54.666 286.2 2.2 277 24.3
2010-04-07 11:59:40 51°32.93 2°54.614 282.3 1.8 276 24.8
2010-04-07 12:00:41 51°32.932 2°54.568 280.6 1.6 272 25.7
2010-04-07 12:01:40 51°32.933 2°54.529 280.6 1.6 277 25.1
2010-04-07 12:02:41 51°32.937 2°54.474 286.8 2.3 278 25
2010-04-07 12:03:40 51°32.948 2°54.407 295 2.8 286 22.4
2010-04-07 12:04:41 51°32.968 2°54.327 305.5 3.5 296 24
2010-04-07 12:05:41 51°32.99 2°54.211 281.4 5.5 276 26.4
2010-04-07 12:06:41 51°32.956 2°54.044 238.4 7.9 237 26.8
2010-04-07 12:07:41 51°32.852 2°53.87 220.9 10.1 222 26.1
2010-04-07 12:08:41 51°32.71 2°53.678 220.9 12.1 222 23.3
2010-04-07 12:09:41 51°32.562 2°53.451 224.9 12.5 227 25.4
2010-04-07 12:10:41 51°32.43 2°53.198 230.8 12.3 230 25
2010-04-07 12:11:41 51°32.287 2°52.957 226.2 12.5 227 26.4
2010-04-07 12:12:40 51°32.158 2°52.731 226.4 9.6 227 26.4
2010-04-07 12:13:40 51°32.071 2°52.581 227.4 6.6 228 24.9
2010-04-07 12:14:40 51°32.004 2°52.468 223.2 5.3 224 25
2010-04-07 12:15:40 51°31.946 2°52.376 225.7 4.6 227 23.2
2010-04-07 12:16:41 51°31.896 2°52.286 225.6 4.4 226 24.9
2010-04-07 12:17:41 51°31.841 2°52.209 215.7 3.9 219 25.1
2010-04-07 12:18:41 51°31.814 2°52.16 243.1 1.6 235 23
2010-04-07 12:19:39 51°31.799 2°52.119 243.1 1.7 240 24.7
2010-04-07 12:20:49 51°31.794 2°52.108 240.5 0.4 65 -999
2010-04-07 12:22:06 51°31.797 2°52.117 240.6 0.3 60 24.3
2010-04-07 12:23:03 51°31.799 2°52.126 243 0.3 59 24.5
2010-04-07 12:24:03 51°31.799 2°52.125 238.2 0.3 244 24
2010-04-07 12:25:03 51°31.795 2°52.114 225.1 0.4 251 24.4
2010-04-07 12:26:03 51°31.795 2°52.107 222.6 0.3 354 24.3
2010-04-07 12:27:05 51°31.803 2°52.114 231.1 1.1 40 24.7
2010-04-07 12:28:06 51°31.804 2°52.113 220 1.1 238 24.9
2010-04-07 12:29:05 51°31.794 2°52.094 198.9 0.7 236 24.7
2010-04-07 12:30:03 51°31.795 2°52.081 193.2 0.5 278 25.3
2010-04-07 12:31:04 51°31.797 2°52.067 182.8 0.6 278 25.5
2010-04-07 12:32:04 51°31.79 2°52.051 180.5 2 196 25.8
2010-04-07 12:33:03 51°31.697 2°52.016 188.8 8.9 191 26
2010-04-07 12:34:03 51°31.528 2°51.982 182.1 10.8 186 25.1
2010-04-07 12:35:04 51°31.339 2°51.959 178.6 11.4 182 24
2010-04-07 12:36:03 51°31.151 2°51.952 178.2 11.5 182 22.2
2010-04-07 12:37:03 51°30.958 2°51.944 178.5 11.6 181 22
2010-04-07 12:38:04 51°30.762 2°51.93 178.6 11.6 182 18.8
2010-04-07 12:39:03 51°30.572 2°51.919 178.8 11.6 182 19.1
2010-04-07 12:40:03 51°30.399 2°51.917 167.4 7.4 168 23.2
2010-04-07 12:41:03 51°30.351 2°52.01 82.7 3.6 82 26.5
2010-04-07 12:42:03 51°30.396 2°52.103 45.5 5.8 44 27.7
2010-04-07 12:43:03 51°30.482 2°52.209 40 6.1 39 24
2010-04-07 12:44:03 51°30.535 2°52.318 64.9 4.7 67 21.1
2010-04-07 12:45:03 51°30.545 2°52.436 88.6 4.3 94 24.1
2010-04-07 12:46:03 51°30.525 2°52.525 112 3 123 25.8
2010-04-07 12:47:04 51°30.493 2°52.574 129 2.4 146 26.9
2010-04-07 12:48:03 51°30.46 2°52.602 131.1 2.4 149 26.3
2010-04-07 12:49:04 51°30.443 2°52.65 85.3 2.4 98 26.3
2010-04-07 12:50:04 51°30.441 2°52.754 86.4 5 91 27.9
2010-04-07 12:51:04 51°30.449 2°52.869 68.8 3.5 72 27.8
2010-04-07 12:52:05 51°30.456 2°52.953 94.4 3 105 27.9
2010-04-07 12:53:04 51°30.445 2°53.034 87.4 3.7 95 28.2
2010-04-07 12:54:05 51°30.409 2°53.137 123.4 5 132 28.9
2010-04-07 12:55:04 51°30.333 2°53.213 151.4 5.9 160 29.7
2010-04-07 12:56:05 51°30.233 2°53.22 178.2 6.1 184 30.4
2010-04-07 12:57:04 51°30.134 2°53.231 162.9 6 169 29.8
2010-04-07 12:58:04 51°30.041 2°53.288 145.8 6 153 30.5
2010-04-07 12:59:04 51°29.954 2°53.319 188.4 5.2 198 31.6
2010-04-07 13:00:04 51°29.902 2°53.229 242.5 4.1 239 31.4
2010-04-07 13:01:05 51°29.865 2°53.156 219.7 3.3 222 31.7
2010-04-07 13:02:04 51°29.797 2°53.13 173.5 6.7 179 32.1
2010-04-07 13:03:04 51°29.619 2°53.135 175.9 13.4 180 31.5
2010-04-07 13:04:04 51°29.387 2°53.142 176.2 14 178 30.4
2010-04-07 13:05:04 51°29.16 2°53.171 170.5 13.6 175 28.5
2010-04-07 13:06:04 51°28.93 2°53.21 170.7 14 174 27
2010-04-07 13:07:04 51°28.698 2°53.24 174.4 14.1 176 25.8
2010-04-07 13:08:04 51°28.465 2°53.255 174.4 14.1 178 24.2
2010-04-07 13:09:04 51°28.232 2°53.274 174.8 14.1 177 23.2
2010-04-07 13:10:04 51°27.999 2°53.292 173.8 14 177 19.7
2010-04-07 13:11:04 51°27.763 2°53.309 174.1 14.2 178 21.7
2010-04-07 13:12:04 51°27.528 2°53.328 174.3 14.2 178 21.9
2010-04-07 13:13:04 51°27.293 2°53.345 174.3 14.2 178 27.5
2010-04-07 13:14:04 51°27.057 2°53.363 174.3 14.2 177 29.2
2010-04-07 13:15:04 51°26.823 2°53.38 174.3 14 178 28.3
2010-04-07 13:16:05 51°26.587 2°53.397 174.3 14 178 31.6
2010-04-07 13:17:04 51°26.357 2°53.414 174.2 14 178 32
2010-04-07 13:18:04 51°26.125 2°53.431 174.4 13.9 177 31.2
2010-04-07 13:19:05 51°25.89 2°53.452 173.8 13.9 177 28.2
2010-04-07 13:20:04 51°25.662 2°53.468 174.6 14 178 25.5
2010-04-07 13:21:05 51°25.425 2°53.481 174.6 14.1 179 23.2
2010-04-07 13:22:04 51°25.195 2°53.496 174.3 14.1 177 20.9
2010-04-07 13:23:04 51°24.962 2°53.516 174.1 13.9 177 18.8
2010-04-07 13:24:03 51°24.734 2°53.529 174.5 13.9 178 18.5
2010-04-07 13:25:03 51°24.502 2°53.539 174.5 13.9 178 18.3
2010-04-07 13:26:03 51°24.271 2°53.551 173.8 14.1 179 18.1
2010-04-07 13:27:03 51°24.038 2°53.562 174.3 13.9 179 20.7
2010-04-07 13:28:03 51°23.805 2°53.57 174.5 14.1 179 21
2010-04-07 13:29:03 51°23.569 2°53.58 174.6 14.2 178 20.8
2010-04-07 13:30:03 51°23.333 2°53.582 180.9 14.4 186 20
2010-04-07 13:31:03 51°23.099 2°53.5 191 14.4 195 20.3
2010-04-07 13:32:03 51°22.867 2°53.409 189.9 14.3 193 22.6
2010-04-07 13:33:03 51°22.638 2°53.322 190.3 14.2 193 22.6
2010-04-07 13:34:03 51°22.411 2°53.218 190.9 14.1 194 23.5
2010-04-07 13:35:03 51°22.182 2°53.133 189.1 14.1 193 22.7
2010-04-07 13:36:03 51°21.952 2°53.05 189.4 14.2 193 21
2010-04-07 13:37:03 51°21.723 2°52.964 190.5 14.1 195 19
2010-04-07 13:38:03 51°21.497 2°52.85 194.7 14.2 198 17.7
2010-04-07 13:39:03 51°21.271 2°52.736 194.5 14.3 197 16.8
2010-04-07 13:40:03 51°21.042 2°52.64 188.8 14.1 193 14.8
2010-04-07 13:41:03 51°20.811 2°52.559 188.4 14.1 191 14.8
2010-04-07 13:42:03 51°20.578 2°52.496 185.8 14.2 189 14
2010-04-07 13:43:03 51°20.346 2°52.43 185.9 14.1 190 15.7
2010-04-07 13:44:03 51°20.115 2°52.364 186.1 14.1 190 16.1
2010-04-07 13:45:04 51°19.88 2°52.31 180.7 14.1 185 16
2010-04-07 13:46:04 51°19.647 2°52.286 178.9 14.1 183 15.7
2010-04-07 13:47:04 51°19.415 2°52.259 178.7 14.1 184 15.3
2010-04-07 13:48:04 51°19.181 2°52.234 179.3 13.9 184 14.5
2010-04-07 13:49:04 51°18.949 2°52.212 177.7 13.9 182 13.4
2010-04-07 13:50:04 51°18.716 2°52.206 176.1 13.9 181 12.3
2010-04-07 13:51:04 51°18.483 2°52.202 175.7 14 180 11.5
2010-04-07 13:52:04 51°18.247 2°52.201 176.1 14.2 181 11.5
2010-04-07 13:53:04 51°18.013 2°52.2 176.6 14 181 11.1
2010-04-07 13:54:04 51°17.777 2°52.204 173.4 14.1 176 11.2
2010-04-07 13:55:04 51°17.553 2°52.295 155.3 13.7 159 10
2010-04-07 13:56:04 51°17.341 2°52.438 153.3 13.9 157 10.1
2010-04-07 13:57:05 51°17.124 2°52.579 154.8 13.7 159 9.4
2010-04-07 13:58:04 51°16.915 2°52.715 154.5 13.8 157 9.2
2010-04-07 13:59:05 51°16.699 2°52.854 155.1 13.9 158 10.7
2010-04-07 14:00:04 51°16.485 2°52.975 154.7 13.8 160 11.8
2010-04-07 14:01:05 51°16.266 2°53.097 154.7 13.7 160 12
2010-04-07 14:02:04 51°16.058 2°53.224 151.1 13.7 157 11.9
2010-04-07 14:03:04 51°15.861 2°53.395 143.8 13.4 148 11.7
2010-04-07 14:04:04 51°15.672 2°53.586 142.2 13.4 146 11.3
2010-04-07 14:05:04 51°15.487 2°53.786 141.3 13.5 146 10.6
2010-04-07 14:06:04 51°15.306 2°53.994 139.4 13.4 144 9.8
2010-04-07 14:07:04 51°15.131 2°54.213 136.7 13.3 141 9.4
2010-04-07 14:08:04 51°14.958 2°54.436 136.8 13.3 141 9.6
2010-04-07 14:09:04 51°14.781 2°54.662 139 13.1 143 9.6
2010-04-07 14:10:04 51°14.603 2°54.881 138.1 13.6 143 11.6
2010-04-07 14:11:04 51°14.433 2°55.093 141.6 12.1 142 10
2010-04-07 14:12:04 51°14.275 2°55.271 145.2 11.3 145 9.9
2010-04-07 14:13:08 51°14.132 2°55.414 151.3 7.8 153 -999
2010-04-07 14:14:08 51°14.016 2°55.494 157.1 7.7 157 -999
2010-04-07 14:15:08 51°13.911 2°55.564 156.7 6.3 157 -999
2010-04-07 14:16:07 51°13.822 2°55.625 158 5.8 158 10.3
2010-04-07 14:17:08 51°13.74 2°55.695 143.7 5.5 137 -999
2010-04-07 14:18:07 51°13.695 2°55.797 117.8 4.1 116 9.4
2010-04-07 14:19:06 51°13.677 2°55.885 105.4 3.2 104 8.8
2010-04-07 14:20:04 51°13.665 2°55.954 116.5 1.6 118 6.2